Time,TemperatureF,DewpointF,PressureIn,WindDirection,WindDirectionDegrees,WindSpeedMPH,WindSpeedGustMPH,Humidity,HourlyPrecipIn,Conditions,Clouds,dailyrainin,SolarRadiationWatts/m^2,SoftwareType,DateUTC
2013-05-21 00:01:00,65.9,63.8,29.95,NE,44,0.0,0.0,93,0.00,,,0.00,520,WeatherCatV1.14B232,2013-05-21 04:01:00,
2013-05-21 00:06:00,65.9,63.8,29.95,NE,44,0.0,0.0,93,0.00,,,0.00,520,WeatherCatV1.14B232,2013-05-21 04:06:00,
2013-05-21 00:11:00,65.8,64.0,29.95,NE,44,0.0,0.0,94,0.00,,,0.00,520,WeatherCatV1.14B232,2013-05-21 04:11:00,
2013-05-21 00:16:00,65.7,63.9,29.95,NE,44,0.0,0.0,94,0.00,,,0.00,520,WeatherCatV1.14B232,2013-05-21 04:16:00,
2013-05-21 00:21:00,65.7,63.9,29.94,NE,44,0.0,0.0,94,0.00,,,0.00,520,WeatherCatV1.14B232,2013-05-21 04:21:00,
2013-05-21 00:26:00,65.6,63.8,29.94,NE,44,0.0,0.0,94,0.00,,,0.00,520,WeatherCatV1.14B232,2013-05-21 04:26:00,
2013-05-21 00:31:00,65.6,63.8,29.94,NE,44,0.0,0.0,94,0.00,,,0.00,520,WeatherCatV1.14B232,2013-05-21 04:31:00,
2013-05-21 00:36:00,65.7,63.9,29.94,NE,44,0.0,0.0,94,0.00,,,0.00,520,WeatherCatV1.14B232,2013-05-21 04:36:00,
2013-05-21 00:41:00,65.6,63.8,29.94,NE,44,0.0,0.0,94,0.00,,,0.00,520,WeatherCatV1.14B232,2013-05-21 04:41:00,
2013-05-21 00:46:00,65.5,63.7,29.94,NE,44,0.0,0.0,94,0.00,,,0.00,520,WeatherCatV1.14B232,2013-05-21 04:46:00,
2013-05-21 00:51:00,65.3,63.5,29.95,NE,44,0.0,0.0,94,0.00,,,0.00,520,WeatherCatV1.14B232,2013-05-21 04:51:00,
2013-05-21 00:56:00,65.1,63.3,29.95,NE,44,0.0,0.0,94,0.00,,,0.00,520,WeatherCatV1.14B232,2013-05-21 04:56:00,
2013-05-21 01:01:00,64.9,63.1,29.95,NE,44,0.0,0.0,94,0.00,,,0.00,520,WeatherCatV1.14B232,2013-05-21 05:01:00,
2013-05-21 01:06:00,64.8,63.0,29.95,NE,44,0.0,0.0,94,0.00,,,0.00,520,WeatherCatV1.14B232,2013-05-21 05:06:00,
2013-05-21 01:11:00,64.7,63.2,29.95,NE,44,0.0,0.0,95,0.00,,,0.00,520,WeatherCatV1.14B232,2013-05-21 05:11:00,
2013-05-21 01:16:00,64.8,63.3,29.95,NE,44,0.0,0.0,95,0.00,,,0.00,520,WeatherCatV1.14B232,2013-05-21 05:16:00,
2013-05-21 01:21:00,64.8,63.3,29.95,NE,44,0.0,0.0,95,0.00,,,0.00,520,WeatherCatV1.14B232,2013-05-21 05:21:00,
2013-05-21 01:26:00,64.9,63.4,29.95,NE,44,0.0,0.0,95,0.00,,,0.00,520,WeatherCatV1.14B232,2013-05-21 05:26:00,
2013-05-21 01:31:00,64.9,63.4,29.94,NE,44,0.0,1.0,95,0.00,,,0.00,520,WeatherCatV1.14B232,2013-05-21 05:31:00,
2013-05-21 01:36:00,65.0,63.5,29.94,NE,44,0.0,1.0,95,0.00,,,0.00,520,WeatherCatV1.14B232,2013-05-21 05:36:00,
2013-05-21 01:41:00,65.0,63.5,29.94,NE,44,0.0,0.0,95,0.00,,,0.00,520,WeatherCatV1.14B232,2013-05-21 05:41:00,
2013-05-21 01:46:00,65.0,63.5,29.93,NE,44,0.0,0.0,95,0.00,,,0.00,520,WeatherCatV1.14B232,2013-05-21 05:46:00,
2013-05-21 01:51:00,65.0,63.5,29.93,NE,44,1.0,1.0,95,0.00,,,0.00,520,WeatherCatV1.14B232,2013-05-21 05:51:00,
2013-05-21 01:56:00,65.0,63.5,29.93,NE,44,0.0,0.0,95,0.00,,,0.00,520,WeatherCatV1.14B232,2013-05-21 05:56:00,
2013-05-21 02:01:00,65.0,63.8,29.93,NE,44,0.0,0.0,96,0.00,,,0.00,520,WeatherCatV1.14B232,2013-05-21 06:01:00,
2013-05-21 02:06:00,64.7,63.2,29.93,NE,44,0.0,0.0,95,0.00,,,0.00,520,WeatherCatV1.14B232,2013-05-21 06:06:00,
2013-05-21 02:11:00,64.4,62.9,29.93,NE,44,0.0,0.0,95,0.00,,,0.00,520,WeatherCatV1.14B232,2013-05-21 06:11:00,
2013-05-21 02:16:00,64.3,62.8,29.93,NE,44,0.0,0.0,95,0.00,,,0.00,520,WeatherCatV1.14B232,2013-05-21 06:16:00,
2013-05-21 02:21:00,64.1,62.6,29.93,NE,44,0.0,0.0,95,0.00,,,0.00,520,WeatherCatV1.14B232,2013-05-21 06:21:00,
2013-05-21 02:26:00,63.9,62.4,29.94,NE,44,0.0,0.0,95,0.00,,,0.00,520,WeatherCatV1.14B232,2013-05-21 06:26:00,
2013-05-21 02:31:00,63.8,62.3,29.94,NE,44,0.0,0.0,95,0.00,,,0.00,520,WeatherCatV1.14B232,2013-05-21 06:31:00,
2013-05-21 02:36:00,63.8,62.3,29.93,NE,44,0.0,0.0,95,0.00,,,0.00,520,WeatherCatV1.14B232,2013-05-21 06:36:00,
2013-05-21 02:41:00,63.7,62.2,29.93,NE,44,0.0,0.0,95,0.00,,,0.00,520,WeatherCatV1.14B232,2013-05-21 06:41:00,
2013-05-21 02:46:00,63.6,62.4,29.93,NE,44,0.0,0.0,96,0.00,,,0.00,520,WeatherCatV1.14B232,2013-05-21 06:46:00,
2013-05-21 02:51:00,63.4,61.9,29.93,NE,44,0.0,0.0,95,0.00,,,0.00,520,WeatherCatV1.14B232,2013-05-21 06:51:00,
2013-05-21 02:56:00,63.4,62.2,29.92,NE,44,0.0,0.0,96,0.00,,,0.00,520,WeatherCatV1.14B232,2013-05-21 06:56:00,
2013-05-21 03:01:00,63.4,62.2,29.92,NE,44,0.0,0.0,96,0.00,,,0.00,520,WeatherCatV1.14B232,2013-05-21 07:01:00,
2013-05-21 03:06:00,63.4,62.2,29.92,NE,44,0.0,0.0,96,0.00,,,0.00,520,WeatherCatV1.14B232,2013-05-21 07:06:00,
2013-05-21 03:11:00,63.4,62.2,29.92,NE,44,0.0,0.0,96,0.00,,,0.00,520,WeatherCatV1.14B232,2013-05-21 07:11:00,
2013-05-21 03:16:00,63.5,62.3,29.91,NE,44,0.0,0.0,96,0.00,,,0.00,520,WeatherCatV1.14B232,2013-05-21 07:16:00,
2013-05-21 03:21:00,63.6,62.4,29.91,NE,44,0.0,0.0,96,0.00,,,0.00,520,WeatherCatV1.14B232,2013-05-21 07:21:00,
2013-05-21 03:26:00,63.8,62.6,29.91,NE,44,0.0,0.0,96,0.00,,,0.00,520,WeatherCatV1.14B232,2013-05-21 07:26:00,
2013-05-21 03:31:00,63.8,62.6,29.91,NE,44,0.0,0.0,96,0.00,,,0.00,520,WeatherCatV1.14B232,2013-05-21 07:31:00,
2013-05-21 03:36:00,63.5,62.3,29.91,NE,44,0.0,0.0,96,0.00,,,0.00,520,WeatherCatV1.14B232,2013-05-21 07:36:00,
2013-05-21 03:41:00,63.2,62.0,29.91,NE,44,0.0,0.0,96,0.00,,,0.00,520,WeatherCatV1.14B232,2013-05-21 07:41:00,
2013-05-21 03:46:00,63.1,61.9,29.91,NE,44,0.0,0.0,96,0.00,,,0.00,520,WeatherCatV1.14B232,2013-05-21 07:46:00,
2013-05-21 03:51:00,63.0,61.8,29.91,NE,44,0.0,0.0,96,0.00,,,0.00,520,WeatherCatV1.14B232,2013-05-21 07:51:00,
2013-05-21 03:56:00,63.0,61.8,29.91,NE,44,0.0,0.0,96,0.00,,,0.00,520,WeatherCatV1.14B232,2013-05-21 07:56:00,
2013-05-21 04:01:00,62.9,61.7,29.91,NE,44,0.0,0.0,96,0.00,,,0.00,520,WeatherCatV1.14B232,2013-05-21 08:01:00,
2013-05-21 04:06:00,62.8,61.6,29.91,NE,44,0.0,0.0,96,0.00,,,0.00,520,WeatherCatV1.14B232,2013-05-21 08:06:00,
2013-05-21 04:11:00,62.8,61.6,29.91,NE,44,0.0,0.0,96,0.00,,,0.00,520,WeatherCatV1.14B232,2013-05-21 08:11:00,
2013-05-21 04:16:00,62.6,61.4,29.91,NE,44,0.0,0.0,96,0.00,,,0.00,520,WeatherCatV1.14B232,2013-05-21 08:16:00,
2013-05-21 04:21:00,62.6,61.4,29.91,NE,44,0.0,0.0,96,0.00,,,0.00,520,WeatherCatV1.14B232,2013-05-21 08:21:00,
2013-05-21 04:26:00,62.5,61.3,29.91,NE,44,0.0,0.0,96,0.00,,,0.00,520,WeatherCatV1.14B232,2013-05-21 08:26:00,
2013-05-21 04:31:00,62.3,61.1,29.91,NE,44,0.0,0.0,96,0.00,,,0.00,520,WeatherCatV1.14B232,2013-05-21 08:31:00,
2013-05-21 04:36:00,62.2,61.0,29.91,NE,44,0.0,0.0,96,0.00,,,0.00,520,WeatherCatV1.14B232,2013-05-21 08:36:00,
2013-05-21 04:41:00,62.2,61.0,29.92,NE,44,0.0,0.0,96,0.00,,,0.00,520,WeatherCatV1.14B232,2013-05-21 08:41:00,
2013-05-21 04:46:00,62.1,60.9,29.92,NE,44,0.0,0.0,96,0.00,,,0.00,520,WeatherCatV1.14B232,2013-05-21 08:46:00,
2013-05-21 04:51:00,62.0,60.8,29.92,NE,44,0.0,0.0,96,0.00,,,0.00,520,WeatherCatV1.14B232,2013-05-21 08:51:00,
2013-05-21 04:56:00,62.0,60.8,29.92,NE,44,0.0,0.0,96,0.00,,,0.00,520,WeatherCatV1.14B232,2013-05-21 08:56:00,
2013-05-21 05:01:00,62.1,60.9,29.92,NE,44,0.0,0.0,96,0.00,,,0.00,520,WeatherCatV1.14B232,2013-05-21 09:01:00,
2013-05-21 05:06:00,62.3,61.1,29.91,NE,44,0.0,2.0,96,0.00,,,0.00,520,WeatherCatV1.14B232,2013-05-21 09:06:00,
2013-05-21 05:11:00,62.7,61.8,29.91,NE,44,0.0,0.0,97,0.00,,,0.00,520,WeatherCatV1.14B232,2013-05-21 09:11:00,
2013-05-21 05:16:00,63.2,62.3,29.91,NE,44,0.0,0.0,97,0.00,,,0.00,520,WeatherCatV1.14B232,2013-05-21 09:16:00,
2013-05-21 05:21:00,63.0,62.1,29.92,NE,44,0.0,0.0,97,0.00,,,0.00,520,WeatherCatV1.14B232,2013-05-21 09:21:00,
2013-05-21 05:26:00,62.7,61.5,29.92,NE,44,0.0,0.0,96,0.00,,,0.00,520,WeatherCatV1.14B232,2013-05-21 09:26:00,
2013-05-21 05:31:00,62.6,61.4,29.92,NE,44,0.0,0.0,96,0.00,,,0.00,520,WeatherCatV1.14B232,2013-05-21 09:31:00,
2013-05-21 05:36:00,62.5,61.3,29.93,NE,44,0.0,0.0,96,0.00,,,0.00,520,WeatherCatV1.14B232,2013-05-21 09:36:00,
2013-05-21 05:41:00,62.4,61.2,29.93,NE,44,0.0,1.0,96,0.00,,,0.00,520,WeatherCatV1.14B232,2013-05-21 09:41:00,
2013-05-21 05:46:00,62.4,61.2,29.93,NE,44,0.0,1.0,96,0.00,,,0.00,520,WeatherCatV1.14B232,2013-05-21 09:46:00,
2013-05-21 05:51:00,62.5,61.3,29.93,NE,44,0.0,0.0,96,0.00,,,0.00,520,WeatherCatV1.14B232,2013-05-21 09:51:00,
2013-05-21 05:56:00,62.5,61.6,29.93,NE,44,0.0,0.0,97,0.00,,,0.00,520,WeatherCatV1.14B232,2013-05-21 09:56:00,
2013-05-21 06:01:00,62.6,61.7,29.93,NE,44,0.0,0.0,97,0.00,,,0.00,520,WeatherCatV1.14B232,2013-05-21 10:01:00,
2013-05-21 06:06:00,62.5,61.6,29.93,NE,44,0.0,0.0,97,0.00,,,0.00,520,WeatherCatV1.14B232,2013-05-21 10:06:00,
2013-05-21 06:11:00,62.5,61.6,29.94,NE,44,0.0,0.0,97,0.00,,,0.00,520,WeatherCatV1.14B232,2013-05-21 10:11:00,
2013-05-21 06:16:00,62.4,61.2,29.94,NE,44,0.0,0.0,96,0.00,,,0.00,520,WeatherCatV1.14B232,2013-05-21 10:16:00,
2013-05-21 06:21:00,62.4,61.2,29.93,NE,44,0.0,0.0,96,0.00,,,0.00,520,WeatherCatV1.14B232,2013-05-21 10:21:00,
2013-05-21 06:26:00,62.5,61.6,29.93,NE,44,0.0,1.0,97,0.00,,,0.00,520,WeatherCatV1.14B232,2013-05-21 10:26:00,
2013-05-21 06:31:00,62.8,61.9,29.93,NE,44,0.0,0.0,97,0.00,,,0.00,520,WeatherCatV1.14B232,2013-05-21 10:31:00,
2013-05-21 06:36:00,63.2,62.3,29.93,NE,44,0.0,0.0,97,0.00,,,0.00,520,WeatherCatV1.14B232,2013-05-21 10:36:00,
2013-05-21 06:41:00,63.5,62.6,29.93,NE,44,0.0,0.0,97,0.00,,,0.00,520,WeatherCatV1.14B232,2013-05-21 10:41:00,
2013-05-21 06:46:00,63.6,62.7,29.92,NE,44,0.0,0.0,97,0.00,,,0.00,520,WeatherCatV1.14B232,2013-05-21 10:46:00,
2013-05-21 06:51:00,63.8,62.9,29.92,NE,44,0.0,0.0,97,0.00,,,0.00,520,WeatherCatV1.14B232,2013-05-21 10:51:00,
2013-05-21 06:53:00,63.9,63.0,29.93,NE,44,0.0,0.0,97,0.00,,,0.00,520,WeatherCatV1.14B232,2013-05-21 10:53:00,
2013-05-21 06:58:00,63.5,62.6,29.93,NE,44,0.0,1.0,97,0.00,,,0.00,520,WeatherCatV1.14B232,2013-05-21 10:58:00,
2013-05-21 07:03:00,62.9,61.7,29.93,NE,44,0.0,0.0,96,0.00,,,0.00,520,WeatherCatV1.14B232,2013-05-21 11:03:00,
2013-05-21 07:08:00,62.6,61.4,29.94,NE,44,1.0,1.0,96,0.00,,,0.00,520,WeatherCatV1.14B232,2013-05-21 11:08:00,
2013-05-21 07:13:00,62.6,61.4,29.94,NE,44,0.0,0.0,96,0.00,,,0.00,520,WeatherCatV1.14B232,2013-05-21 11:13:00,
2013-05-21 07:18:00,62.9,61.7,29.94,NE,44,0.0,0.0,96,0.00,,,0.00,520,WeatherCatV1.14B232,2013-05-21 11:18:00,
2013-05-21 07:23:00,63.3,62.4,29.94,NE,44,0.0,0.0,97,0.00,,,0.00,520,WeatherCatV1.14B232,2013-05-21 11:23:00,
2013-05-21 07:28:00,64.5,63.6,29.94,NE,44,0.0,0.0,97,0.00,,,0.00,520,WeatherCatV1.14B232,2013-05-21 11:28:00,
2013-05-21 07:33:00,64.9,64.0,29.94,NE,44,0.0,1.0,97,0.00,,,0.00,520,WeatherCatV1.14B232,2013-05-21 11:33:00,
2013-05-21 07:38:00,65.5,64.6,29.94,NE,44,0.0,1.0,97,0.00,,,0.00,520,WeatherCatV1.14B232,2013-05-21 11:38:00,
2013-05-21 07:43:00,66.2,65.3,29.94,NE,44,0.0,0.0,97,0.00,,,0.00,520,WeatherCatV1.14B232,2013-05-21 11:43:00,
2013-05-21 07:48:00,66.9,66.0,29.94,NE,44,0.0,0.0,97,0.00,,,0.00,520,WeatherCatV1.14B232,2013-05-21 11:48:00,
2013-05-21 07:53:00,67.5,66.6,29.94,NE,44,0.0,1.0,97,0.00,,,0.00,520,WeatherCatV1.14B232,2013-05-21 11:53:00,
2013-05-21 07:58:00,68.2,67.0,29.94,NE,44,1.0,1.0,96,0.00,,,0.00,520,WeatherCatV1.14B232,2013-05-21 11:58:00,
2013-05-21 08:03:00,68.9,67.4,29.93,NE,44,0.0,1.0,95,0.00,,,0.00,520,WeatherCatV1.14B232,2013-05-21 12:03:00,
2013-05-21 08:08:00,69.8,68.0,29.93,NE,44,0.0,1.0,94,0.00,,,0.00,520,WeatherCatV1.14B232,2013-05-21 12:08:00,
2013-05-21 08:13:00,70.3,67.5,29.93,NE,44,0.0,1.0,91,0.00,,,0.00,520,WeatherCatV1.14B232,2013-05-21 12:13:00,
2013-05-21 08:18:00,70.9,67.5,29.94,NE,44,0.0,1.0,89,0.00,,,0.00,520,WeatherCatV1.14B232,2013-05-21 12:18:00,
2013-05-21 08:23:00,71.1,67.4,29.94,NE,44,0.0,1.0,88,0.00,,,0.00,520,WeatherCatV1.14B232,2013-05-21 12:23:00,
2013-05-21 08:28:00,71.2,67.1,29.93,NE,44,1.0,2.0,87,0.00,,,0.00,520,WeatherCatV1.14B232,2013-05-21 12:28:00,
2013-05-21 08:33:00,71.4,67.7,29.94,NE,44,0.0,0.0,88,0.00,,,0.00,520,WeatherCatV1.14B232,2013-05-21 12:33:00,
2013-05-21 08:38:00,71.8,67.7,29.93,NE,44,0.0,1.0,87,0.00,,,0.00,520,WeatherCatV1.14B232,2013-05-21 12:38:00,
2013-05-21 08:43:00,72.1,67.7,29.93,NE,44,0.0,2.0,86,0.00,,,0.00,520,WeatherCatV1.14B232,2013-05-21 12:43:00,
2013-05-21 08:48:00,72.3,67.5,29.93,NE,44,0.0,2.0,85,0.00,,,0.00,520,WeatherCatV1.14B232,2013-05-21 12:48:00,
2013-05-21 08:53:00,72.1,67.7,29.93,NE,44,1.0,1.0,86,0.00,,,0.00,520,WeatherCatV1.14B232,2013-05-21 12:53:00,
2013-05-21 08:58:00,72.2,67.8,29.94,NE,44,0.0,1.0,86,0.00,,,0.00,520,WeatherCatV1.14B232,2013-05-21 12:58:00,
2013-05-21 09:03:00,72.6,68.2,29.93,NE,44,0.0,4.0,86,0.00,,,0.00,520,WeatherCatV1.14B232,2013-05-21 13:03:00,
2013-05-21 09:08:00,72.9,68.1,29.93,NE,44,0.0,2.0,85,0.00,,,0.00,520,WeatherCatV1.14B232,2013-05-21 13:08:00,
2013-05-21 09:13:00,73.6,68.5,29.93,NE,44,1.0,2.0,84,0.00,,,0.00,520,WeatherCatV1.14B232,2013-05-21 13:13:00,
2013-05-21 09:18:00,74.3,69.1,29.93,NE,44,0.0,1.0,84,0.00,,,0.00,520,WeatherCatV1.14B232,2013-05-21 13:18:00,
2013-05-21 09:23:00,75.0,69.5,29.92,NE,44,1.0,2.0,83,0.00,,,0.00,520,WeatherCatV1.14B232,2013-05-21 13:23:00,
2013-05-21 09:28:00,75.6,69.0,29.93,NE,44,0.0,1.0,80,0.00,,,0.00,520,WeatherCatV1.14B232,2013-05-21 13:28:00,
2013-05-21 09:33:00,76.3,70.0,29.93,NE,44,0.0,0.0,81,0.00,,,0.00,520,WeatherCatV1.14B232,2013-05-21 13:33:00,
2013-05-21 09:38:00,76.7,70.0,29.93,NE,44,0.0,2.0,80,0.00,,,0.00,520,WeatherCatV1.14B232,2013-05-21 13:38:00,
2013-05-21 09:43:00,76.8,69.4,29.93,NE,44,1.0,2.0,78,0.00,,,0.00,520,WeatherCatV1.14B232,2013-05-21 13:43:00,
2013-05-21 09:48:00,77.1,69.7,29.92,NE,44,0.0,2.0,78,0.00,,,0.00,520,WeatherCatV1.14B232,2013-05-21 13:48:00,
2013-05-21 09:53:00,77.7,70.7,29.92,NE,44,0.0,2.0,79,0.00,,,0.00,520,WeatherCatV1.14B232,2013-05-21 13:53:00,
2013-05-21 09:58:00,78.3,70.1,29.93,NE,44,0.0,1.0,76,0.00,,,0.00,520,WeatherCatV1.14B232,2013-05-21 13:58:00,
2013-05-21 10:03:00,78.1,70.3,29.92,NE,44,1.0,1.0,77,0.00,,,0.00,520,WeatherCatV1.14B232,2013-05-21 14:03:00,
2013-05-21 10:08:00,78.5,70.7,29.92,NE,44,1.0,1.0,77,0.00,,,0.00,520,WeatherCatV1.14B232,2013-05-21 14:08:00,
2013-05-21 10:13:00,79.2,71.0,29.92,NE,44,0.0,1.0,76,0.00,,,0.00,520,WeatherCatV1.14B232,2013-05-21 14:13:00,
2013-05-21 10:18:00,79.6,70.6,29.92,NE,44,0.0,2.0,74,0.00,,,0.00,520,WeatherCatV1.14B232,2013-05-21 14:18:00,
2013-05-21 10:23:00,79.6,70.6,29.92,NE,44,0.0,1.0,74,0.00,,,0.00,520,WeatherCatV1.14B232,2013-05-21 14:23:00,
2013-05-21 10:28:00,80.3,70.8,29.91,NE,44,1.0,2.0,73,0.00,,,0.00,520,WeatherCatV1.14B232,2013-05-21 14:28:00,
2013-05-21 10:33:00,80.0,70.1,29.91,NE,44,1.0,1.0,72,0.00,,,0.00,520,WeatherCatV1.14B232,2013-05-21 14:33:00,
2013-05-21 10:38:00,80.5,69.8,29.91,NE,44,1.0,3.0,70,0.00,,,0.00,520,WeatherCatV1.14B232,2013-05-21 14:38:00,
2013-05-21 10:43:00,80.9,70.6,29.91,NE,44,0.0,1.0,71,0.00,,,0.00,520,WeatherCatV1.14B232,2013-05-21 14:43:00,
2013-05-21 10:48:00,81.7,71.4,29.91,NE,44,1.0,1.0,71,0.00,,,0.00,520,WeatherCatV1.14B232,2013-05-21 14:48:00,
2013-05-21 10:53:00,82.1,70.9,29.91,NE,44,1.0,2.0,69,0.00,,,0.00,520,WeatherCatV1.14B232,2013-05-21 14:53:00,
2013-05-21 10:58:00,82.7,71.0,29.91,NE,44,0.0,1.0,68,0.00,,,0.00,520,WeatherCatV1.14B232,2013-05-21 14:58:00,
2013-05-21 11:03:00,82.6,70.5,29.91,NE,44,3.0,3.0,67,0.00,,,0.00,520,WeatherCatV1.14B232,2013-05-21 15:03:00,
2013-05-21 11:08:00,82.5,70.8,29.90,NE,44,1.0,1.0,68,0.00,,,0.00,520,WeatherCatV1.14B232,2013-05-21 15:08:00,
2013-05-21 11:13:00,83.0,70.4,29.90,NE,44,0.0,4.0,66,0.00,,,0.00,520,WeatherCatV1.14B232,2013-05-21 15:13:00,
2013-05-21 11:18:00,83.3,70.7,29.90,NE,44,1.0,3.0,66,0.00,,,0.00,520,WeatherCatV1.14B232,2013-05-21 15:18:00,
2013-05-21 11:23:00,83.8,71.6,29.90,NE,44,0.0,1.0,67,0.00,,,0.00,520,WeatherCatV1.14B232,2013-05-21 15:23:00,
2013-05-21 11:28:00,84.5,71.9,29.90,NE,44,0.0,1.0,66,0.00,,,0.00,520,WeatherCatV1.14B232,2013-05-21 15:28:00,
2013-05-21 11:33:00,85.3,73.5,29.89,NE,44,1.0,1.0,68,0.00,,,0.00,520,WeatherCatV1.14B232,2013-05-21 15:33:00,
2013-05-21 11:38:00,85.7,72.1,29.89,NE,44,0.0,1.0,64,0.00,,,0.00,520,WeatherCatV1.14B232,2013-05-21 15:38:00,
2013-05-21 11:43:00,86.1,71.5,29.89,NE,44,1.0,3.0,62,0.00,,,0.00,520,WeatherCatV1.14B232,2013-05-21 15:43:00,
2013-05-21 11:48:00,85.9,71.8,29.89,NE,44,1.0,2.0,63,0.00,,,0.00,520,WeatherCatV1.14B232,2013-05-21 15:48:00,
2013-05-21 11:53:00,85.9,71.8,29.89,NE,44,0.0,1.0,63,0.00,,,0.00,520,WeatherCatV1.14B232,2013-05-21 15:53:00,
2013-05-21 11:58:00,86.7,71.1,29.89,NE,44,2.0,2.0,60,0.00,,,0.00,520,WeatherCatV1.14B232,2013-05-21 15:58:00,
2013-05-21 12:03:00,86.9,70.8,29.88,NE,44,1.0,2.0,59,0.00,,,0.00,520,WeatherCatV1.14B232,2013-05-21 16:03:00,
2013-05-21 12:08:00,86.9,71.3,29.88,NE,44,1.0,1.0,60,0.00,,,0.00,520,WeatherCatV1.14B232,2013-05-21 16:08:00,
2013-05-21 12:13:00,86.7,70.6,29.88,NE,44,0.0,3.0,59,0.00,,,0.00,520,WeatherCatV1.14B232,2013-05-21 16:13:00,
2013-05-21 12:18:00,86.6,72.0,29.88,NE,44,1.0,1.0,62,0.00,,,0.00,520,WeatherCatV1.14B232,2013-05-21 16:18:00,
2013-05-21 12:23:00,86.6,72.0,29.88,NE,44,0.0,1.0,62,0.00,,,0.00,520,WeatherCatV1.14B232,2013-05-21 16:23:00,
2013-05-21 12:28:00,86.5,70.9,29.88,NE,44,0.0,2.0,60,0.00,,,0.00,520,WeatherCatV1.14B232,2013-05-21 16:28:00,
2013-05-21 12:33:00,87.0,71.9,29.88,NE,44,0.0,3.0,61,0.00,,,0.00,520,WeatherCatV1.14B232,2013-05-21 16:33:00,
2013-05-21 12:38:00,87.8,72.1,29.88,NE,44,2.0,2.0,60,0.00,,,0.00,520,WeatherCatV1.14B232,2013-05-21 16:38:00,
2013-05-21 12:43:00,87.6,72.0,29.87,NE,44,1.0,2.0,60,0.00,,,0.00,520,WeatherCatV1.14B232,2013-05-21 16:43:00,
2013-05-21 12:48:00,87.9,72.2,29.88,NE,44,1.0,2.0,60,0.00,,,0.00,520,WeatherCatV1.14B232,2013-05-21 16:48:00,
2013-05-21 12:53:00,88.4,72.2,29.88,NE,44,0.0,2.0,59,0.00,,,0.00,520,WeatherCatV1.14B232,2013-05-21 16:53:00,
2013-05-21 12:58:00,87.9,71.2,29.88,NE,44,0.0,4.0,58,0.00,,,0.00,520,WeatherCatV1.14B232,2013-05-21 16:58:00,
2013-05-21 13:03:00,88.1,71.9,29.87,NE,44,0.0,0.0,59,0.00,,,0.00,520,WeatherCatV1.14B232,2013-05-21 17:03:00,
2013-05-21 13:08:00,88.4,71.7,29.87,NE,44,2.0,2.0,58,0.00,,,0.00,520,WeatherCatV1.14B232,2013-05-21 17:08:00,
2013-05-21 13:13:00,88.0,71.8,29.87,NE,44,1.0,2.0,59,0.00,,,0.00,520,WeatherCatV1.14B232,2013-05-21 17:13:00,
2013-05-21 13:18:00,88.3,73.1,29.86,NE,44,0.0,2.0,61,0.00,,,0.00,520,WeatherCatV1.14B232,2013-05-21 17:18:00,
2013-05-21 13:23:00,88.9,72.2,29.86,NE,44,1.0,2.0,58,0.00,,,0.00,520,WeatherCatV1.14B232,2013-05-21 17:23:00,
2013-05-21 13:28:00,89.0,71.8,29.86,NE,44,0.0,2.0,57,0.00,,,0.00,520,WeatherCatV1.14B232,2013-05-21 17:28:00,
2013-05-21 13:33:00,89.4,73.1,29.86,NE,44,1.0,1.0,59,0.00,,,0.00,520,WeatherCatV1.14B232,2013-05-21 17:33:00,
2013-05-21 13:38:00,89.4,72.1,29.86,NE,44,2.0,2.0,57,0.00,,,0.00,520,WeatherCatV1.14B232,2013-05-21 17:38:00,
2013-05-21 13:43:00,89.2,71.9,29.85,NE,44,1.0,2.0,57,0.00,,,0.00,520,WeatherCatV1.14B232,2013-05-21 17:43:00,
2013-05-21 13:48:00,89.0,71.8,29.85,NE,44,1.0,1.0,57,0.00,,,0.00,520,WeatherCatV1.14B232,2013-05-21 17:48:00,
2013-05-21 13:53:00,88.6,72.4,29.85,NE,44,1.0,1.0,59,0.00,,,0.00,520,WeatherCatV1.14B232,2013-05-21 17:53:00,
2013-05-21 13:58:00,88.8,72.6,29.85,NE,44,1.0,1.0,59,0.00,,,0.00,520,WeatherCatV1.14B232,2013-05-21 17:58:00,
2013-05-21 14:03:00,88.7,73.0,29.85,NE,44,0.0,0.0,60,0.00,,,0.00,520,WeatherCatV1.14B232,2013-05-21 18:03:00,
2013-05-21 14:08:00,88.8,72.6,29.85,NE,44,1.0,5.0,59,0.00,,,0.00,520,WeatherCatV1.14B232,2013-05-21 18:08:00,
2013-05-21 14:13:00,88.3,71.1,29.85,NE,44,0.0,2.0,57,0.00,,,0.00,520,WeatherCatV1.14B232,2013-05-21 18:13:00,
2013-05-21 14:18:00,88.6,72.4,29.85,NE,44,2.0,3.0,59,0.00,,,0.00,520,WeatherCatV1.14B232,2013-05-21 18:18:00,
2013-05-21 14:23:00,88.5,71.3,29.85,NE,44,0.0,2.0,57,0.00,,,0.00,520,WeatherCatV1.14B232,2013-05-21 18:23:00,
2013-05-21 14:28:00,88.2,72.5,29.85,NE,44,1.0,2.0,60,0.00,,,0.00,520,WeatherCatV1.14B232,2013-05-21 18:28:00,
2013-05-21 14:33:00,87.6,72.5,29.85,NE,44,0.0,1.0,61,0.00,,,0.00,520,WeatherCatV1.14B232,2013-05-21 18:33:00,
2013-05-21 14:38:00,87.4,73.2,29.85,NE,44,1.0,2.0,63,0.00,,,0.00,520,WeatherCatV1.14B232,2013-05-21 18:38:00,
2013-05-21 14:43:00,87.6,72.5,29.84,NE,44,0.0,0.0,61,0.00,,,0.00,520,WeatherCatV1.14B232,2013-05-21 18:43:00,
2013-05-21 14:48:00,87.7,72.5,29.84,NE,44,1.0,4.0,61,0.00,,,0.00,520,WeatherCatV1.14B232,2013-05-21 18:48:00,
2013-05-21 14:53:00,87.0,72.4,29.84,NE,44,0.0,2.0,62,0.00,,,0.00,520,WeatherCatV1.14B232,2013-05-21 18:53:00,
2013-05-21 14:58:00,86.4,71.8,29.84,NE,44,2.0,4.0,62,0.00,,,0.00,520,WeatherCatV1.14B232,2013-05-21 18:58:00,
2013-05-21 15:03:00,86.5,72.8,29.84,NE,44,3.0,3.0,64,0.00,,,0.00,520,WeatherCatV1.14B232,2013-05-21 19:03:00,
2013-05-21 15:08:00,86.5,71.9,29.84,NE,44,1.0,4.0,62,0.00,,,0.00,520,WeatherCatV1.14B232,2013-05-21 19:08:00,
2013-05-21 15:13:00,86.8,72.7,29.84,NE,44,0.0,1.0,63,0.00,,,0.00,520,WeatherCatV1.14B232,2013-05-21 19:13:00,
2013-05-21 15:18:00,86.9,71.8,29.83,NE,44,1.0,2.0,61,0.00,,,0.00,520,WeatherCatV1.14B232,2013-05-21 19:18:00,
2013-05-21 15:23:00,86.4,71.8,29.83,NE,44,1.0,5.0,62,0.00,,,0.00,520,WeatherCatV1.14B232,2013-05-21 19:23:00,
2013-05-21 15:28:00,86.2,72.6,29.83,NE,44,1.0,2.0,64,0.00,,,0.00,520,WeatherCatV1.14B232,2013-05-21 19:28:00,
2013-05-21 15:33:00,86.2,72.6,29.83,NE,44,1.0,2.0,64,0.00,,,0.00,520,WeatherCatV1.14B232,2013-05-21 19:33:00,
2013-05-21 15:38:00,86.1,71.5,29.82,NE,44,2.0,2.0,62,0.00,,,0.00,520,WeatherCatV1.14B232,2013-05-21 19:38:00,
2013-05-21 15:43:00,86.1,72.9,29.82,NE,44,2.0,2.0,65,0.00,,,0.00,520,WeatherCatV1.14B232,2013-05-21 19:43:00,
2013-05-21 15:48:00,86.2,72.1,29.82,NE,44,1.0,2.0,63,0.00,,,0.00,520,WeatherCatV1.14B232,2013-05-21 19:48:00,
2013-05-21 15:53:00,86.3,71.7,29.82,NE,44,0.0,2.0,62,0.00,,,0.00,520,WeatherCatV1.14B232,2013-05-21 19:53:00,
2013-05-21 15:58:00,86.4,70.8,29.82,NE,44,0.0,2.0,60,0.00,,,0.00,520,WeatherCatV1.14B232,2013-05-21 19:58:00,
2013-05-21 16:03:00,86.2,71.1,29.82,NE,44,3.0,4.0,61,0.00,,,0.00,520,WeatherCatV1.14B232,2013-05-21 20:03:00,
2013-05-21 16:08:00,86.0,71.0,29.82,NE,44,1.0,5.0,61,0.00,,,0.00,520,WeatherCatV1.14B232,2013-05-21 20:08:00,
2013-05-21 16:13:00,85.9,71.3,29.82,NE,44,0.0,1.0,62,0.00,,,0.00,520,WeatherCatV1.14B232,2013-05-21 20:13:00,
2013-05-21 16:18:00,85.9,72.3,29.82,NE,44,0.0,1.0,64,0.00,,,0.00,520,WeatherCatV1.14B232,2013-05-21 20:18:00,
2013-05-21 16:23:00,85.8,71.2,29.81,NE,44,0.0,2.0,62,0.00,,,0.00,520,WeatherCatV1.14B232,2013-05-21 20:23:00,
2013-05-21 16:28:00,85.7,71.6,29.81,NE,44,1.0,3.0,63,0.00,,,0.00,520,WeatherCatV1.14B232,2013-05-21 20:28:00,
2013-05-21 16:33:00,85.6,71.5,29.81,NE,44,1.0,1.0,63,0.00,,,0.00,520,WeatherCatV1.14B232,2013-05-21 20:33:00,
2013-05-21 16:38:00,85.6,71.5,29.80,NE,44,0.0,2.0,63,0.00,,,0.00,520,WeatherCatV1.14B232,2013-05-21 20:38:00,
2013-05-21 16:43:00,85.4,70.9,29.81,NE,44,1.0,3.0,62,0.00,,,0.00,520,WeatherCatV1.14B232,2013-05-21 20:43:00,
2013-05-21 16:48:00,85.2,70.7,29.80,NE,44,1.0,3.0,62,0.00,,,0.00,520,WeatherCatV1.14B232,2013-05-21 20:48:00,
2013-05-21 16:53:00,85.2,71.2,29.80,NE,44,1.0,2.0,63,0.00,,,0.00,520,WeatherCatV1.14B232,2013-05-21 20:53:00,
2013-05-21 16:58:00,85.1,71.5,29.80,NE,44,0.0,3.0,64,0.00,,,0.00,520,WeatherCatV1.14B232,2013-05-21 20:58:00,
2013-05-21 17:03:00,84.8,71.2,29.80,NE,44,0.0,2.0,64,0.00,,,0.00,520,WeatherCatV1.14B232,2013-05-21 21:03:00,
2013-05-21 17:08:00,84.5,71.0,29.80,NE,44,1.0,3.0,64,0.00,,,0.00,520,WeatherCatV1.14B232,2013-05-21 21:08:00,
2013-05-21 17:13:00,84.4,70.9,29.80,NE,44,1.0,2.0,64,0.00,,,0.00,520,WeatherCatV1.14B232,2013-05-21 21:13:00,
2013-05-21 17:18:00,84.5,71.0,29.80,NE,44,1.0,2.0,64,0.00,,,0.00,520,WeatherCatV1.14B232,2013-05-21 21:18:00,
2013-05-21 17:23:00,84.7,71.1,29.81,NE,44,2.0,3.0,64,0.00,,,0.00,520,WeatherCatV1.14B232,2013-05-21 21:23:00,
2013-05-21 17:28:00,84.7,70.7,29.81,NE,44,1.0,2.0,63,0.00,,,0.00,520,WeatherCatV1.14B232,2013-05-21 21:28:00,
2013-05-21 17:33:00,84.7,70.7,29.81,NE,44,0.0,2.0,63,0.00,,,0.00,520,WeatherCatV1.14B232,2013-05-21 21:33:00,
2013-05-21 17:38:00,84.7,70.7,29.81,NE,44,1.0,1.0,63,0.00,,,0.00,520,WeatherCatV1.14B232,2013-05-21 21:38:00,
2013-05-21 17:43:00,84.6,71.0,29.80,NE,44,2.0,3.0,64,0.00,,,0.00,520,WeatherCatV1.14B232,2013-05-21 21:43:00,
2013-05-21 17:48:00,84.4,71.3,29.80,NE,44,1.0,2.0,65,0.00,,,0.00,520,WeatherCatV1.14B232,2013-05-21 21:48:00,
2013-05-21 17:53:00,84.1,70.6,29.80,NE,44,2.0,3.0,64,0.00,,,0.00,520,WeatherCatV1.14B232,2013-05-21 21:53:00,
2013-05-21 17:58:00,83.9,70.4,29.80,NE,44,0.0,1.0,64,0.00,,,0.00,520,WeatherCatV1.14B232,2013-05-21 21:58:00,
2013-05-21 18:03:00,83.7,70.7,29.80,NE,44,1.0,2.0,65,0.00,,,0.00,520,WeatherCatV1.14B232,2013-05-21 22:03:00,
2013-05-21 18:08:00,83.7,71.1,29.81,NE,44,1.0,2.0,66,0.00,,,0.00,520,WeatherCatV1.14B232,2013-05-21 22:08:00,
2013-05-21 18:13:00,83.6,70.6,29.81,NE,44,0.0,3.0,65,0.00,,,0.00,520,WeatherCatV1.14B232,2013-05-21 22:13:00,
2013-05-21 18:18:00,83.4,71.3,29.80,NE,44,0.0,2.0,67,0.00,,,0.00,520,WeatherCatV1.14B232,2013-05-21 22:18:00,
2013-05-21 18:23:00,83.3,71.2,29.80,NE,44,0.0,1.0,67,0.00,,,0.00,520,WeatherCatV1.14B232,2013-05-21 22:23:00,
2013-05-21 18:28:00,83.1,71.0,29.81,NE,44,1.0,4.0,67,0.00,,,0.00,520,WeatherCatV1.14B232,2013-05-21 22:28:00,
2013-05-21 18:33:00,82.9,71.2,29.81,NE,44,0.0,3.0,68,0.00,,,0.00,520,WeatherCatV1.14B232,2013-05-21 22:33:00,
2013-05-21 18:38:00,82.7,71.5,29.81,NE,44,1.0,1.0,69,0.00,,,0.00,520,WeatherCatV1.14B232,2013-05-21 22:38:00,
2013-05-21 18:43:00,82.6,71.8,29.80,NE,44,1.0,1.0,70,0.00,,,0.00,520,WeatherCatV1.14B232,2013-05-21 22:43:00,
2013-05-21 18:48:00,82.5,71.7,29.81,NE,44,0.0,1.0,70,0.00,,,0.00,520,WeatherCatV1.14B232,2013-05-21 22:48:00,
2013-05-21 18:53:00,82.1,70.9,29.81,NE,44,0.0,4.0,69,0.00,,,0.00,520,WeatherCatV1.14B232,2013-05-21 22:53:00,
2013-05-21 18:58:00,81.9,71.5,29.81,NE,44,0.0,3.0,71,0.00,,,0.00,520,WeatherCatV1.14B232,2013-05-21 22:58:00,
2013-05-21 19:03:00,81.7,71.4,29.81,NE,44,1.0,2.0,71,0.00,,,0.00,520,WeatherCatV1.14B232,2013-05-21 23:03:00,
2013-05-21 19:08:00,81.4,71.1,29.80,NE,44,0.0,1.0,71,0.00,,,0.00,520,WeatherCatV1.14B232,2013-05-21 23:08:00,
2013-05-21 19:13:00,81.2,70.9,29.81,NE,44,0.0,0.0,71,0.00,,,0.00,520,WeatherCatV1.14B232,2013-05-21 23:13:00,
2013-05-21 19:18:00,81.0,71.1,29.81,NE,44,0.0,1.0,72,0.00,,,0.00,520,WeatherCatV1.14B232,2013-05-21 23:18:00,
2013-05-21 19:23:00,80.7,70.8,29.81,NE,44,0.0,2.0,72,0.00,,,0.00,520,WeatherCatV1.14B232,2013-05-21 23:23:00,
2013-05-21 19:28:00,80.5,71.0,29.81,NE,44,1.0,2.0,73,0.00,,,0.00,520,WeatherCatV1.14B232,2013-05-21 23:28:00,
2013-05-21 19:33:00,80.1,70.6,29.81,NE,44,0.0,1.0,73,0.00,,,0.00,520,WeatherCatV1.14B232,2013-05-21 23:33:00,
2013-05-21 19:38:00,79.9,70.4,29.81,NE,44,1.0,1.0,73,0.00,,,0.00,520,WeatherCatV1.14B232,2013-05-21 23:38:00,
2013-05-21 19:43:00,79.6,70.6,29.81,NE,44,0.0,2.0,74,0.00,,,0.00,520,WeatherCatV1.14B232,2013-05-21 23:43:00,
2013-05-21 19:48:00,79.4,70.4,29.81,NE,44,0.0,0.0,74,0.00,,,0.00,520,WeatherCatV1.14B232,2013-05-21 23:48:00,
2013-05-21 19:53:00,79.3,70.3,29.81,NE,44,0.0,1.0,74,0.00,,,0.00,520,WeatherCatV1.14B232,2013-05-21 23:53:00,
2013-05-21 19:58:00,79.1,70.1,29.82,NE,44,0.0,1.0,74,0.00,,,0.00,520,WeatherCatV1.14B232,2013-05-21 23:58:00,
2013-05-21 20:03:00,78.9,70.3,29.82,NE,44,0.0,1.0,75,0.00,,,0.00,520,WeatherCatV1.14B232,2013-05-22 00:03:00,
2013-05-21 20:08:00,78.5,69.9,29.82,NE,44,1.0,2.0,75,0.00,,,0.00,520,WeatherCatV1.14B232,2013-05-22 00:08:00,
2013-05-21 20:13:00,78.2,70.0,29.82,NE,44,0.0,1.0,76,0.00,,,0.00,520,WeatherCatV1.14B232,2013-05-22 00:13:00,
2013-05-21 20:18:00,77.9,69.7,29.82,NE,44,0.0,2.0,76,0.00,,,0.00,520,WeatherCatV1.14B232,2013-05-22 00:18:00,
2013-05-21 20:23:00,77.8,69.6,29.81,NE,44,0.0,0.0,76,0.00,,,0.00,520,WeatherCatV1.14B232,2013-05-22 00:23:00,
2013-05-21 20:28:00,77.6,69.4,29.81,NE,44,0.0,3.0,76,0.00,,,0.00,520,WeatherCatV1.14B232,2013-05-22 00:28:00,
2013-05-21 20:33:00,77.5,69.3,29.81,NE,44,0.0,1.0,76,0.00,,,0.00,520,WeatherCatV1.14B232,2013-05-22 00:33:00,
2013-05-21 20:38:00,77.4,68.8,29.82,NE,44,1.0,2.0,75,0.00,,,0.00,520,WeatherCatV1.14B232,2013-05-22 00:38:00,
2013-05-21 20:43:00,77.3,69.1,29.82,NE,44,0.0,2.0,76,0.00,,,0.00,520,WeatherCatV1.14B232,2013-05-22 00:43:00,
2013-05-21 20:48:00,77.2,69.0,29.82,NE,44,0.0,1.0,76,0.00,,,0.00,520,WeatherCatV1.14B232,2013-05-22 00:48:00,
2013-05-21 20:53:00,77.0,68.8,29.82,NE,44,0.0,2.0,76,0.00,,,0.00,520,WeatherCatV1.14B232,2013-05-22 00:53:00,
2013-05-21 20:59:00,76.9,68.7,29.82,NE,44,0.0,2.0,76,0.00,,,0.00,520,WeatherCatV1.14B232,2013-05-22 00:59:00,
2013-05-21 21:04:00,76.7,68.9,29.81,NE,44,0.0,2.0,77,0.00,,,0.00,520,WeatherCatV1.14B232,2013-05-22 01:04:00,
2013-05-21 21:09:00,76.4,68.6,29.81,NE,44,0.0,0.0,77,0.00,,,0.00,520,WeatherCatV1.14B232,2013-05-22 01:09:00,
2013-05-21 21:14:00,76.2,68.4,29.81,NE,44,0.0,1.0,77,0.00,,,0.00,520,WeatherCatV1.14B232,2013-05-22 01:14:00,
2013-05-21 21:19:00,76.0,68.6,29.81,NE,44,0.0,1.0,78,0.00,,,0.00,520,WeatherCatV1.14B232,2013-05-22 01:19:00,
2013-05-21 21:24:00,75.9,68.5,29.82,NE,44,0.0,2.0,78,0.00,,,0.00,520,WeatherCatV1.14B232,2013-05-22 01:24:00,
2013-05-21 21:29:00,75.8,68.4,29.82,NE,44,0.0,1.0,78,0.00,,,0.00,520,WeatherCatV1.14B232,2013-05-22 01:29:00,
2013-05-21 21:34:00,75.6,68.2,29.82,NE,44,0.0,0.0,78,0.00,,,0.00,520,WeatherCatV1.14B232,2013-05-22 01:34:00,
2013-05-21 21:39:00,75.4,68.4,29.82,NE,44,0.0,0.0,79,0.00,,,0.00,520,WeatherCatV1.14B232,2013-05-22 01:39:00,
2013-05-21 21:44:00,75.2,68.2,29.82,NE,44,1.0,1.0,79,0.00,,,0.00,520,WeatherCatV1.14B232,2013-05-22 01:44:00,
2013-05-21 21:49:00,75.0,68.4,29.82,NE,44,0.0,0.0,80,0.00,,,0.00,520,WeatherCatV1.14B232,2013-05-22 01:49:00,
2013-05-21 21:54:00,74.8,68.2,29.82,NE,44,0.0,1.0,80,0.00,,,0.00,520,WeatherCatV1.14B232,2013-05-22 01:54:00,
2013-05-21 21:59:00,74.6,68.0,29.82,NE,44,0.0,2.0,80,0.00,,,0.00,520,WeatherCatV1.14B232,2013-05-22 01:59:00,
2013-05-21 22:04:00,74.6,68.0,29.82,NE,44,0.0,0.0,80,0.00,,,0.00,520,WeatherCatV1.14B232,2013-05-22 02:04:00,
2013-05-21 22:09:00,74.4,67.8,29.82,NE,44,0.0,0.0,80,0.00,,,0.00,520,WeatherCatV1.14B232,2013-05-22 02:09:00,
2013-05-21 22:14:00,74.3,67.7,29.82,NE,44,0.0,0.0,80,0.00,,,0.00,520,WeatherCatV1.14B232,2013-05-22 02:14:00,
2013-05-21 22:19:00,74.1,67.5,29.82,NE,44,0.0,1.0,80,0.00,,,0.00,520,WeatherCatV1.14B232,2013-05-22 02:19:00,
2013-05-21 22:24:00,74.0,67.4,29.82,NE,44,0.0,1.0,80,0.00,,,0.00,520,WeatherCatV1.14B232,2013-05-22 02:24:00,
2013-05-21 22:29:00,73.9,67.7,29.82,NE,44,0.0,1.0,81,0.00,,,0.00,520,WeatherCatV1.14B232,2013-05-22 02:29:00,
2013-05-21 22:34:00,73.7,67.5,29.82,NE,44,0.0,1.0,81,0.00,,,0.00,520,WeatherCatV1.14B232,2013-05-22 02:34:00,
2013-05-21 22:39:00,73.6,67.4,29.82,NE,44,0.0,1.0,81,0.00,,,0.00,520,WeatherCatV1.14B232,2013-05-22 02:39:00,
2013-05-21 22:44:00,73.5,67.3,29.82,NE,44,0.0,2.0,81,0.00,,,0.00,520,WeatherCatV1.14B232,2013-05-22 02:44:00,
2013-05-21 22:49:00,73.4,67.2,29.82,NE,44,1.0,1.0,81,0.00,,,0.00,520,WeatherCatV1.14B232,2013-05-22 02:49:00,
2013-05-21 22:54:00,73.2,67.0,29.82,NE,44,0.0,2.0,81,0.00,,,0.00,520,WeatherCatV1.14B232,2013-05-22 02:54:00,
2013-05-21 22:59:00,73.2,67.4,29.81,NE,44,0.0,0.0,82,0.00,,,0.00,520,WeatherCatV1.14B232,2013-05-22 02:59:00,
2013-05-21 23:04:00,73.1,67.3,29.82,NE,44,0.0,3.0,82,0.00,,,0.00,520,WeatherCatV1.14B232,2013-05-22 03:04:00,
2013-05-21 23:09:00,73.1,67.3,29.82,NE,44,1.0,1.0,82,0.00,,,0.00,520,WeatherCatV1.14B232,2013-05-22 03:09:00,
2013-05-21 23:14:00,72.9,67.1,29.82,NE,44,1.0,2.0,82,0.00,,,0.00,520,WeatherCatV1.14B232,2013-05-22 03:14:00,
2013-05-21 23:19:00,72.7,67.2,29.82,NE,44,1.0,3.0,83,0.00,,,0.00,520,WeatherCatV1.14B232,2013-05-22 03:19:00,
2013-05-21 23:24:00,72.6,67.1,29.81,NE,44,0.0,0.0,83,0.00,,,0.00,520,WeatherCatV1.14B232,2013-05-22 03:24:00,
2013-05-21 23:29:00,72.5,67.0,29.82,NE,44,1.0,1.0,83,0.00,,,0.00,520,WeatherCatV1.14B232,2013-05-22 03:29:00,
2013-05-21 23:34:00,72.3,67.2,29.82,NE,44,1.0,1.0,84,0.00,,,0.00,520,WeatherCatV1.14B232,2013-05-22 03:34:00,
2013-05-21 23:39:00,72.1,67.0,29.82,NE,44,0.0,0.0,84,0.00,,,0.00,520,WeatherCatV1.14B232,2013-05-22 03:39:00,
2013-05-21 23:44:00,71.9,67.1,29.82,NE,44,0.0,1.0,85,0.00,,,0.00,520,WeatherCatV1.14B232,2013-05-22 03:44:00,
2013-05-21 23:49:00,71.8,67.0,29.82,NE,44,0.0,1.0,85,0.00,,,0.00,520,WeatherCatV1.14B232,2013-05-22 03:49:00,
2013-05-21 23:54:00,71.7,66.9,29.82,NE,44,0.0,1.0,85,0.00,,,0.00,520,WeatherCatV1.14B232,2013-05-22 03:54:00,
2013-05-21 23:59:00,71.7,66.9,29.82,NE,44,0.0,1.0,85,0.00,,,0.00,520,WeatherCatV1.14B232,2013-05-22 03:59:00,